Time;durP1;ratioP1;P1;durP2;ratioP2;P2;SDS_P1;SDS_P2;PMS_P1;PMS_P2;Temp;Humidity;BMP_temperature;BMP_pressure;BME280_temperature;BME280_humidity;BME280_pressure;Samples;Min_cycle;Max_cycle;Signal;HPM_P1;HPM_P2
2021/03/03 00:27:42;;;;;;;54.17;32.37;;;2.50;99.90;;;;;;5023271;28;20618;-62
2021/03/03 00:30:10;;;;;;;50.70;31.13;;;2.50;99.90;;;;;;5021310;28;20224;-63
2021/03/03 00:32:36;;;;;;;55.07;32.83;;;2.50;99.90;;;;;;5021801;28;20196;-62
2021/03/03 00:35:03;;;;;;;52.77;32.07;;;2.50;99.90;;;;;;5020837;28;20727;-62
2021/03/03 00:37:30;;;;;;;47.07;30.77;;;2.40;99.90;;;;;;5018793;28;20283;-63
2021/03/03 00:39:56;;;;;;;49.80;32.30;;;2.40;99.90;;;;;;5021521;28;20295;-62
2021/03/03 00:42:22;;;;;;;47.57;32.77;;;2.30;99.90;;;;;;5019135;28;20200;-62
2021/03/03 00:44:50;;;;;;;50.03;31.53;;;2.30;99.90;;;;;;5020276;28;20236;-62
2021/03/03 00:47:16;;;;;;;51.37;32.80;;;2.30;99.90;;;;;;5017417;28;20207;-63
2021/03/03 00:49:42;;;;;;;50.30;31.97;;;2.30;99.90;;;;;;5022207;28;20230;-64
2021/03/03 00:52:09;;;;;;;52.77;34.33;;;2.30;99.90;;;;;;5018674;28;20250;-61
2021/03/03 00:54:35;;;;;;;54.33;33.67;;;2.20;99.90;;;;;;5022396;28;20231;-63
2021/03/03 00:57:02;;;;;;;53.20;32.97;;;2.20;99.90;;;;;;5018429;28;20201;-62
2021/03/03 00:59:28;;;;;;;51.70;32.43;;;2.30;99.90;;;;;;5021461;28;20197;-61
2021/03/03 01:01:56;;;;;;;49.23;31.07;;;2.20;99.90;;;;;;5020648;28;20200;-61
2021/03/03 01:04:22;;;;;;;48.33;32.37;;;2.30;99.90;;;;;;5019260;28;20752;-62
2021/03/03 01:06:48;;;;;;;55.50;33.43;;;2.30;99.90;;;;;;5021852;28;20200;-61
2021/03/03 01:09:15;;;;;;;55.33;33.97;;;2.30;99.90;;;;;;5020278;28;20196;-61
2021/03/03 01:11:41;;;;;;;51.87;32.67;;;2.30;99.90;;;;;;5019216;28;20274;-62
2021/03/03 01:14:08;;;;;;;58.47;34.40;;;2.30;99.90;;;;;;5020157;28;20215;-63
2021/03/03 01:16:34;;;;;;;54.93;32.70;;;2.30;99.90;;;;;;5019976;28;20200;-65
2021/03/03 01:19:01;;;;;;;51.73;33.43;;;2.30;99.90;;;;;;5024739;28;20201;-62
2021/03/03 01:21:28;;;;;;;55.50;32.87;;;2.30;99.90;;;;;;5021619;28;20192;-62
2021/03/03 01:23:54;;;;;;;54.23;32.80;;;2.30;99.90;;;;;;5023894;28;22168;-61
2021/03/03 01:26:21;;;;;;;58.53;34.80;;;2.30;99.90;;;;;;5030601;28;20227;-61
2021/03/03 01:28:47;;;;;;;54.13;35.00;;;2.30;99.90;;;;;;5033658;28;20577;-61
2021/03/03 01:31:14;;;;;;;57.33;35.97;;;2.30;99.90;;;;;;5034469;28;20204;-62
2021/03/03 01:33:40;;;;;;;56.33;36.53;;;2.30;99.90;;;;;;5033603;28;20263;-64
2021/03/03 01:36:08;;;;;;;64.10;37.27;;;2.30;99.90;;;;;;5016450;28;20205;-62
2021/03/03 01:38:34;;;;;;;58.17;33.57;;;2.30;99.90;;;;;;5021318;28;20204;-62
2021/03/03 01:41:01;;;;;;;59.67;34.60;;;2.30;99.90;;;;;;5020087;28;20205;-61
2021/03/03 01:43:31;;;;;;;59.87;35.27;;;2.30;99.90;;;;;;5018472;28;20192;-61
2021/03/03 01:45:58;;;;;;;64.50;37.67;;;2.30;99.90;;;;;;5019468;28;20251;-61
2021/03/03 01:48:25;;;;;;;61.70;36.57;;;2.30;99.90;;;;;;5020706;28;20208;-64
2021/03/03 01:50:53;;;;;;;62.67;36.10;;;2.40;99.90;;;;;;5019193;28;20205;-64
2021/03/03 01:53:20;;;;;;;58.97;36.43;;;2.50;99.90;;;;;;5019892;28;20230;-62
2021/03/03 01:55:46;;;;;;;53.80;34.50;;;2.40;99.90;;;;;;5020230;28;20201;-62
2021/03/03 01:58:13;;;;;;;57.50;35.57;;;2.40;99.90;;;;;;5023669;28;20218;-61
2021/03/03 02:00:39;;;;;;;56.53;34.83;;;2.30;99.90;;;;;;5020726;28;20712;-62
2021/03/03 02:03:06;;;;;;;52.67;33.80;;;2.30;99.90;;;;;;5023208;28;20201;-63
2021/03/03 02:05:33;;;;;;;47.87;32.00;;;2.30;99.90;;;;;;5014788;28;20229;-61
2021/03/03 02:08:04;;;;;;;54.17;32.80;;;2.30;99.90;;;;;;5015558;28;20200;-61
2021/03/03 02:10:40;;;;;;;53.60;33.40;;;2.30;99.90;;;;;;5017917;28;20223;-61
2021/03/03 02:13:11;;;;;;;49.13;30.97;;;2.30;99.90;;;;;;5019320;28;20207;-64
2021/03/03 02:15:41;;;;;;;52.43;30.27;;;2.30;99.90;;;;;;5018437;28;20203;-63
2021/03/03 02:18:10;;;;;;;47.63;30.20;;;2.20;99.90;;;;;;5021463;28;20208;-63
2021/03/03 02:20:47;;;;;;;50.27;30.90;;;2.20;99.90;;;;;;5019078;28;20287;-65
2021/03/03 02:23:18;;;;;;;53.60;32.73;;;2.20;99.90;;;;;;5022071;28;20203;-66
2021/03/03 02:25:48;;;;;;;59.00;34.50;;;2.20;99.90;;;;;;5019453;28;20204;-63
2021/03/03 02:28:15;;;;;;;55.20;34.07;;;2.20;99.90;;;;;;5019743;28;20232;-64
2021/03/03 02:30:43;;;;;;;56.73;32.87;;;2.30;99.90;;;;;;5024586;28;20196;-62
2021/03/03 02:33:13;;;;;;;60.07;35.40;;;2.30;99.90;;;;;;5019305;28;20205;-62
2021/03/03 02:35:41;;;;;;;51.97;32.93;;;2.30;99.90;;;;;;5017504;28;20571;-63
2021/03/03 02:38:08;;;;;;;59.07;33.53;;;2.30;99.90;;;;;;5019804;28;20417;-63
2021/03/03 02:40:35;;;;;;;56.17;33.63;;;2.30;99.90;;;;;;5017554;28;20200;-62
2021/03/03 02:43:04;;;;;;;53.23;33.60;;;2.30;99.90;;;;;;5019295;28;20544;-63
2021/03/03 02:45:30;;;;;;;56.07;34.20;;;2.30;99.90;;;;;;5018447;28;20263;-62
2021/03/03 02:47:58;;;;;;;59.33;35.23;;;2.30;99.90;;;;;;5017829;28;20196;-62
2021/03/03 02:50:25;;;;;;;58.47;35.27;;;2.30;99.90;;;;;;5017081;28;20242;-63
2021/03/03 02:52:53;;;;;;;60.17;37.43;;;2.30;99.90;;;;;;5020131;28;20260;-62
2021/03/03 02:55:20;;;;;;;55.23;34.70;;;2.30;99.90;;;;;;5016725;28;20698;-62
2021/03/03 02:57:46;;;;;;;63.97;38.10;;;2.40;99.90;;;;;;5018369;28;20196;-62
2021/03/03 03:00:16;;;;;;;66.33;37.60;;;2.40;99.90;;;;;;5022352;28;20684;-61
2021/03/03 03:02:46;;;;;;;62.63;37.47;;;2.40;99.90;;;;;;5019239;28;20201;-62
2021/03/03 03:05:14;;;;;;;61.13;36.77;;;2.50;99.90;;;;;;5018854;28;20251;-62
2021/03/03 03:07:45;;;;;;;64.03;36.30;;;2.50;99.90;;;;;;5024086;28;20200;-63
2021/03/03 03:10:16;;;;;;;58.30;37.03;;;2.50;99.90;;;;;;5019474;28;20545;-62
2021/03/03 03:12:47;;;;;;;65.57;36.97;;;2.60;99.90;;;;;;5018038;28;20212;-63
2021/03/03 03:15:17;;;;;;;66.47;35.97;;;2.60;99.90;;;;;;5023455;28;20211;-61
2021/03/03 03:17:48;;;;;;;64.40;37.80;;;2.60;99.90;;;;;;5019452;28;20232;-64
2021/03/03 03:20:17;;;;;;;66.80;37.33;;;2.60;99.90;;;;;;5017490;28;20200;-64
2021/03/03 03:22:44;;;;;;;56.13;37.37;;;2.70;99.90;;;;;;5019329;28;20273;-62
2021/03/03 03:25:13;;;;;;;64.27;35.60;;;2.70;99.90;;;;;;5021073;28;20247;-63
2021/03/03 03:27:42;;;;;;;66.03;34.87;;;2.70;99.90;;;;;;5023359;28;20235;-62
2021/03/03 03:30:11;;;;;;;62.10;36.33;;;2.70;99.90;;;;;;5024506;28;20608;-62
2021/03/03 03:32:39;;;;;;;58.33;37.07;;;2.70;99.90;;;;;;5016974;28;20223;-62
2021/03/03 03:35:07;;;;;;;58.10;35.90;;;2.80;99.90;;;;;;5012930;28;20200;-66
2021/03/03 03:37:34;;;;;;;60.03;35.10;;;2.80;99.90;;;;;;5015020;28;20549;-62
2021/03/03 03:40:01;;;;;;;67.07;37.10;;;2.80;99.90;;;;;;5017785;28;20299;-65
2021/03/03 03:42:29;;;;;;;72.30;38.27;;;2.90;99.90;;;;;;5015243;28;20249;-63
2021/03/03 03:44:57;;;;;;;61.13;34.77;;;2.90;99.90;;;;;;5018112;28;20256;-63
2021/03/03 03:47:24;;;;;;;57.50;33.70;;;2.90;99.90;;;;;;5017438;28;20544;-63
2021/03/03 03:49:53;;;;;;;55.77;34.77;;;3.00;99.90;;;;;;5018318;28;20255;-63
2021/03/03 03:52:20;;;;;;;61.60;35.73;;;3.00;99.90;;;;;;5020275;28;20196;-61
2021/03/03 03:54:51;;;;;;;63.57;36.47;;;3.00;99.90;;;;;;5020996;28;20204;-63
2021/03/03 03:57:17;;;;;;;63.77;36.97;;;3.00;99.90;;;;;;5019602;28;20192;-62
2021/03/03 03:59:44;;;;;;;63.70;36.30;;;3.10;99.90;;;;;;5019263;28;20207;-64
2021/03/03 04:02:11;;;;;;;67.47;37.10;;;3.20;99.90;;;;;;5019615;28;20318;-61
2021/03/03 04:04:38;;;;;;;69.30;37.47;;;3.20;99.90;;;;;;5018767;28;20235;-62
2021/03/03 04:07:06;;;;;;;70.77;38.00;;;3.30;99.90;;;;;;5022461;28;20215;-65
2021/03/03 04:09:32;;;;;;;72.63;38.73;;;3.30;99.90;;;;;;5022072;28;20206;-64
2021/03/03 04:11:59;;;;;;;70.73;38.27;;;3.30;99.90;;;;;;5022710;28;20257;-62
2021/03/03 04:14:27;;;;;;;68.97;39.43;;;3.30;99.90;;;;;;5024530;28;20250;-65
2021/03/03 04:16:53;;;;;;;72.40;37.53;;;3.30;99.90;;;;;;5022816;28;20261;-61
2021/03/03 04:19:20;;;;;;;71.20;38.37;;;3.30;99.90;;;;;;5023607;28;20200;-63
2021/03/03 04:21:46;;;;;;;69.97;37.30;;;3.30;99.90;;;;;;5022418;28;20216;-63
2021/03/03 04:24:14;;;;;;;77.00;39.10;;;3.30;99.90;;;;;;5026229;28;20220;-63
2021/03/03 04:26:41;;;;;;;72.80;37.80;;;3.30;99.90;;;;;;5023852;28;20282;-65
2021/03/03 04:29:07;;;;;;;75.57;37.73;;;3.30;99.90;;;;;;5021989;28;20974;-65
2021/03/03 04:31:33;;;;;;;115.87;41.20;;;3.30;99.90;;;;;;5023526;28;20653;-62
2021/03/03 04:34:00;;;;;;;85.37;35.93;;;3.40;99.90;;;;;;5022516;28;20205;-61
2021/03/03 04:36:26;;;;;;;95.33;36.50;;;3.40;99.90;;;;;;5022191;28;20227;-63
2021/03/03 04:38:53;;;;;;;91.87;36.23;;;3.50;99.90;;;;;;5023788;28;20204;-61
2021/03/03 04:41:20;;;;;;;94.30;36.23;;;3.60;99.90;;;;;;5023151;28;20226;-63
2021/03/03 04:43:47;;;;;;;86.67;35.73;;;3.50;99.90;;;;;;5022788;28;20295;-62
2021/03/03 04:46:13;;;;;;;89.60;36.17;;;3.50;99.90;;;;;;5023787;28;20577;-64
2021/03/03 04:48:40;;;;;;;67.33;32.53;;;3.50;99.90;;;;;;5022403;28;20674;-62
2021/03/03 04:51:06;;;;;;;61.87;30.73;;;3.50;99.90;;;;;;5023300;28;20235;-61
2021/03/03 04:53:33;;;;;;;52.17;29.03;;;3.50;99.90;;;;;;5022153;28;20246;-62
2021/03/03 04:55:59;;;;;;;44.20;27.97;;;3.50;99.90;;;;;;5023031;28;20255;-64
2021/03/03 04:58:26;;;;;;;44.97;27.17;;;3.40;99.90;;;;;;5023609;28;21152;-63
2021/03/03 05:00:53;;;;;;;52.20;27.70;;;3.40;99.90;;;;;;5020571;28;20196;-63
2021/03/03 05:03:20;;;;;;;40.87;26.30;;;3.30;99.90;;;;;;5021720;28;20200;-61
2021/03/03 05:05:46;;;;;;;43.10;26.70;;;3.30;99.90;;;;;;5022560;28;20220;-61
2021/03/03 05:08:13;;;;;;;41.83;26.43;;;3.30;99.90;;;;;;5024337;28;20204;-62
2021/03/03 05:10:39;;;;;;;44.83;26.40;;;3.20;99.90;;;;;;5023244;28;20208;-62
2021/03/03 05:13:13;;;;;;;42.30;26.30;;;3.10;99.90;;;;;;5020066;28;20251;-63
2021/03/03 05:15:40;;;;;;;46.57;27.13;;;3.10;99.90;;;;;;5020338;28;20196;-62
2021/03/03 05:18:08;;;;;;;44.00;26.37;;;3.10;99.90;;;;;;5022551;28;20197;-63
2021/03/03 05:20:34;;;;;;;46.03;26.43;;;3.10;99.90;;;;;;5021048;28;20200;-65
2021/03/03 05:23:01;;;;;;;46.50;26.00;;;3.10;99.90;;;;;;5019758;28;20200;-64
2021/03/03 05:25:27;;;;;;;44.93;24.20;;;3.10;99.90;;;;;;5020395;28;20228;-65
2021/03/03 05:27:54;;;;;;;44.43;25.03;;;3.10;99.90;;;;;;5024967;28;20231;-61
2021/03/03 05:30:22;;;;;;;47.63;25.27;;;3.10;99.90;;;;;;5022350;28;20288;-62
2021/03/03 05:32:49;;;;;;;48.30;25.87;;;3.10;99.90;;;;;;5022944;28;20197;-62
2021/03/03 05:35:16;;;;;;;54.57;26.83;;;3.10;99.90;;;;;;5020010;28;21231;-63
2021/03/03 05:37:42;;;;;;;41.60;25.73;;;3.10;99.90;;;;;;5021965;28;20290;-63
2021/03/03 05:40:10;;;;;;;53.83;26.53;;;3.10;99.90;;;;;;5018880;28;20200;-64
2021/03/03 05:42:37;;;;;;;42.97;24.97;;;3.10;99.90;;;;;;5020536;28;20204;-65
2021/03/03 05:45:04;;;;;;;48.50;26.47;;;3.10;99.90;;;;;;5020417;28;20235;-64
2021/03/03 05:47:35;;;;;;;60.77;26.87;;;3.20;99.90;;;;;;5021278;28;20212;-63
2021/03/03 05:50:04;;;;;;;59.13;27.57;;;3.20;99.90;;;;;;5020907;28;20205;-62
2021/03/03 05:52:32;;;;;;;51.97;26.23;;;3.20;99.90;;;;;;5021657;28;20626;-64
2021/03/03 05:55:02;;;;;;;42.43;25.30;;;3.30;99.90;;;;;;5019255;28;20784;-63
2021/03/03 05:57:30;;;;;;;65.40;26.20;;;3.30;99.90;;;;;;5022766;28;20603;-61
2021/03/03 05:59:57;;;;;;;57.43;25.77;;;3.30;99.90;;;;;;5020846;28;20209;-61
2021/03/03 06:02:25;;;;;;;51.67;26.23;;;3.30;99.90;;;;;;5020589;28;21261;-63
2021/03/03 06:04:52;;;;;;;44.73;24.50;;;3.30;99.90;;;;;;5019264;28;20229;-66
2021/03/03 06:07:21;;;;;;;34.57;22.13;;;3.30;99.90;;;;;;5020542;28;20207;-64
2021/03/03 06:09:47;;;;;;;48.40;24.33;;;3.30;99.90;;;;;;5021213;28;20196;-62
2021/03/03 06:12:14;;;;;;;44.23;21.53;;;3.30;99.90;;;;;;5019051;28;20200;-62
2021/03/03 06:14:41;;;;;;;34.03;20.60;;;3.30;99.90;;;;;;5020773;28;20684;-63
2021/03/03 06:17:08;;;;;;;47.13;21.73;;;3.30;99.90;;;;;;5020430;28;20603;-63
2021/03/03 06:19:34;;;;;;;62.23;25.00;;;3.30;99.90;;;;;;5021101;28;20200;-63
2021/03/03 06:22:23;;;;;;;44.73;22.63;;;3.30;99.90;;;;;;5020096;28;20200;-62
2021/03/03 06:24:50;;;;;;;40.93;20.77;;;3.30;99.90;;;;;;5020576;28;20761;-64
2021/03/03 06:27:17;;;;;;;57.13;22.73;;;3.30;99.90;;;;;;5024979;28;20723;-65
2021/03/03 06:30:01;;;;;;;52.17;22.03;;;3.30;99.90;;;;;;5021269;28;20196;-62
2021/03/03 06:32:28;;;;;;;40.63;21.50;;;3.40;99.90;;;;;;5017077;28;20201;-61
2021/03/03 06:34:54;;;;;;;100.97;30.30;;;3.50;99.90;;;;;;5020056;28;20669;-62
2021/03/03 06:37:21;;;;;;;55.87;25.03;;;3.50;99.90;;;;;;5020014;28;20212;-65
2021/03/03 06:40:09;;;;;;;82.50;29.33;;;3.50;99.90;;;;;;5018635;28;20196;-65
2021/03/03 06:42:35;;;;;;;55.20;25.23;;;3.60;99.90;;;;;;5021044;28;20247;-62
2021/03/03 06:45:02;;;;;;;52.07;25.67;;;3.70;99.90;;;;;;5019549;28;20235;-65
2021/03/03 06:47:29;;;;;;;55.07;26.67;;;3.70;99.90;;;;;;5019255;28;20196;-64
2021/03/03 06:50:11;;;;;;;53.43;25.57;;;3.70;99.90;;;;;;5021089;28;20219;-64
2021/03/03 06:52:39;;;;;;;69.13;27.50;;;3.80;99.90;;;;;;5018969;28;20836;-63
2021/03/03 06:55:08;;;;;;;84.47;30.83;;;3.80;99.90;;;;;;5021010;28;20196;-61
2021/03/03 06:57:34;;;;;;;80.83;31.23;;;3.90;99.90;;;;;;5018424;28;20197;-64
2021/03/03 07:00:00;;;;;;;79.10;30.83;;;3.90;99.90;;;;;;5019627;28;20196;-63
2021/03/03 07:02:31;;;;;;;82.40;30.43;;;3.90;99.90;;;;;;5019866;28;20197;-62
2021/03/03 07:04:58;;;;;;;66.23;28.50;;;4.00;99.90;;;;;;5018707;28;20215;-63
2021/03/03 07:07:25;;;;;;;62.47;26.67;;;4.00;99.90;;;;;;5018639;28;20211;-62
2021/03/03 07:09:53;;;;;;;81.70;32.90;;;4.00;99.90;;;;;;5020193;28;20250;-65
2021/03/03 07:12:23;;;;;;;98.77;32.40;;;4.00;99.90;;;;;;5020736;28;20204;-64
2021/03/03 07:14:58;;;;;;;71.60;29.73;;;4.00;99.90;;;;;;5020351;28;20227;-62
2021/03/03 07:17:25;;;;;;;89.83;31.73;;;4.10;99.90;;;;;;5018984;28;20199;-62
2021/03/03 07:19:52;;;;;;;67.77;30.60;;;4.10;99.90;;;;;;5019079;28;20204;-66
2021/03/03 07:22:30;;;;;;;59.63;29.53;;;4.10;99.90;;;;;;5018439;28;20219;-63
2021/03/03 07:25:01;;;;;;;68.73;31.83;;;4.20;99.90;;;;;;5021258;28;20218;-63
2021/03/03 07:27:29;;;;;;;59.17;28.87;;;4.30;99.90;;;;;;5020362;28;20232;-64
2021/03/03 07:29:57;;;;;;;67.50;32.50;;;4.30;99.90;;;;;;5019983;28;20192;-64
2021/03/03 07:32:24;;;;;;;55.83;29.93;;;4.30;99.90;;;;;;5018631;28;20212;-64
2021/03/03 07:34:52;;;;;;;60.20;32.57;;;4.30;99.90;;;;;;5014782;28;20204;-65
2021/03/03 07:37:20;;;;;;;56.70;30.13;;;4.40;99.90;;;;;;5018241;28;20208;-66
2021/03/03 07:39:50;;;;;;;51.33;31.00;;;4.50;99.90;;;;;;5021162;28;20212;-63
2021/03/03 07:42:21;;;;;;;53.93;30.67;;;4.60;99.90;;;;;;5017360;28;20204;-66
2021/03/03 07:44:49;;;;;;;62.80;33.17;;;4.70;99.90;;;;;;5019112;28;20220;-64
2021/03/03 07:47:17;;;;;;;59.57;33.20;;;4.80;99.90;;;;;;5019256;28;20540;-66
2021/03/03 07:49:46;;;;;;;52.97;31.67;;;4.90;99.90;;;;;;5018938;28;20236;-66
2021/03/03 07:52:14;;;;;;;55.97;32.87;;;5.00;99.90;;;;;;5019813;28;20568;-66
2021/03/03 07:54:40;;;;;;;56.87;32.50;;;5.00;99.90;;;;;;5019932;28;20296;-63
2021/03/03 07:57:08;;;;;;;64.53;32.53;;;5.00;99.90;;;;;;5018254;28;20220;-62
2021/03/03 07:59:36;;;;;;;56.63;33.13;;;5.10;99.90;;;;;;5018254;28;20279;-66
2021/03/03 08:02:03;;;;;;;54.10;32.47;;;5.20;99.90;;;;;;5021049;28;20201;-64
2021/03/03 08:04:41;;;;;;;60.70;33.33;;;5.30;99.90;;;;;;5019052;28;20228;-63
2021/03/03 08:07:22;;;;;;;48.00;30.70;;;5.30;99.90;;;;;;5022345;28;20199;-62
2021/03/03 08:10:22;;;;;;;46.67;30.30;;;5.40;99.90;;;;;;5021427;28;20274;-62
2021/03/03 08:13:13;;;;;;;49.03;30.57;;;5.50;99.90;;;;;;4958320;28;20199;-62
2021/03/03 08:15:41;;;;;;;48.80;32.10;;;5.40;99.90;;;;;;4949215;28;20603;-66
2021/03/03 08:18:27;;;;;;;49.20;31.73;;;5.40;99.90;;;;;;4958867;28;20215;-63
2021/03/03 08:20:55;;;;;;;47.17;31.37;;;5.50;99.90;;;;;;4957794;28;20659;-62
2021/03/03 08:23:51;;;;;;;56.10;32.73;;;5.60;99.90;;;;;;4956554;28;20213;-63
2021/03/03 08:26:39;;;;;;;51.27;31.50;;;5.60;99.90;;;;;;4958990;28;20276;-64
2021/03/03 08:29:16;;;;;;;51.67;33.03;;;5.80;99.90;;;;;;4957649;28;20203;-64
2021/03/03 08:31:43;;;;;;;45.30;31.17;;;6.10;99.90;;;;;;4958539;28;20203;-64
2021/03/03 08:34:11;;;;;;;42.17;28.17;;;6.20;99.90;;;;;;4959950;28;20229;-63
2021/03/03 08:37:00;;;;;;;47.97;29.97;;;6.20;99.90;;;;;;4958318;28;20206;-67
2021/03/03 08:39:40;;;;;;;38.47;27.77;;;6.40;99.90;;;;;;4970531;28;20194;-62
2021/03/03 08:42:31;;;;;;;46.20;27.83;;;6.50;99.90;;;;;;4969910;28;20588;-64
2021/03/03 08:45:06;;;;;;;37.17;26.53;;;6.50;99.90;;;;;;5012221;28;20304;-65
2021/03/03 08:47:58;;;;;;;36.47;25.67;;;6.60;99.90;;;;;;5012164;28;20189;-63
2021/03/03 08:50:46;;;;;;;37.33;26.30;;;6.80;99.90;;;;;;4992226;28;20204;-61
2021/03/03 08:53:20;;;;;;;33.00;26.00;;;6.90;99.90;;;;;;5015577;28;20189;-61
2021/03/03 08:55:47;;;;;;;38.80;25.80;;;6.90;99.90;;;;;;5014913;28;20705;-61
2021/03/03 08:58:49;;;;;;;38.77;26.57;;;7.00;99.90;;;;;;5015630;28;20509;-61
2021/03/03 09:01:16;;;;;;;35.47;25.63;;;7.10;99.90;;;;;;4997559;28;20248;-62
2021/03/03 09:03:45;;;;;;;35.13;26.33;;;7.10;99.90;;;;;;5018333;28;20201;-66
2021/03/03 09:06:12;;;;;;;31.80;23.67;;;7.20;99.90;;;;;;5016651;28;20227;-61
2021/03/03 09:08:39;;;;;;;31.57;24.10;;;7.40;99.90;;;;;;5013507;28;20204;-60
2021/03/03 09:11:15;;;;;;;31.60;24.50;;;7.50;99.90;;;;;;5014333;28;20209;-62
2021/03/03 09:13:42;;;;;;;31.70;23.93;;;7.60;99.90;;;;;;5012382;28;20248;-62
2021/03/03 09:16:11;;;;;;;31.17;23.93;;;7.40;99.90;;;;;;5010239;28;20215;-67
2021/03/03 09:18:38;;;;;;;30.67;23.77;;;7.40;99.90;;;;;;5007048;28;20667;-65
2021/03/03 09:21:09;;;;;;;31.30;24.17;;;7.30;99.90;;;;;;5010560;28;20197;-67
2021/03/03 09:23:38;;;;;;;33.87;26.13;;;7.40;99.90;;;;;;5005534;28;20209;-66
2021/03/03 09:26:18;;;;;;;32.97;25.37;;;7.30;99.90;;;;;;5009277;28;20744;-67
2021/03/03 09:28:45;;;;;;;33.23;25.63;;;7.50;99.90;;;;;;5027562;28;20582;-67
2021/03/03 09:31:28;;;;;;;32.87;25.87;;;7.60;99.90;;;;;;5030295;28;20696;-67
2021/03/03 09:33:54;;;;;;;34.47;25.37;;;8.00;99.90;;;;;;5031296;28;20195;-66
2021/03/03 09:36:21;;;;;;;31.00;24.33;;;8.10;99.90;;;;;;5028820;28;20664;-63
2021/03/03 09:38:54;;;;;;;31.97;25.33;;;8.10;99.90;;;;;;5024505;28;20670;-62
2021/03/03 09:41:21;;;;;;;32.03;25.33;;;8.20;99.90;;;;;;5017947;28;20203;-64
2021/03/03 09:44:01;;;;;;;31.27;25.10;;;8.30;99.90;;;;;;5022420;28;20204;-61
2021/03/03 09:46:28;;;;;;;29.30;23.20;;;8.40;99.90;;;;;;5021892;28;20708;-63
2021/03/03 09:48:54;;;;;;;32.57;24.10;;;8.50;99.90;;;;;;5020560;28;20196;-62
2021/03/03 09:51:21;;;;;;;30.33;24.33;;;8.50;99.90;;;;;;5021473;28;20784;-62
2021/03/03 09:53:55;;;;;;;29.73;23.80;;;8.70;99.90;;;;;;5021117;28;20200;-63
2021/03/03 09:56:30;;;;;;;30.07;23.80;;;8.80;99.90;;;;;;5021589;28;20593;-64
2021/03/03 09:58:57;;;;;;;29.10;23.37;;;9.00;99.90;;;;;;5022900;28;20234;-63
2021/03/03 10:01:24;;;;;;;30.03;23.93;;;9.10;99.90;;;;;;5021003;28;20196;-64
2021/03/03 10:03:52;;;;;;;31.20;24.13;;;9.10;99.90;;;;;;5023445;28;20203;-63
2021/03/03 10:06:19;;;;;;;31.30;25.47;;;9.10;99.90;;;;;;5018242;28;20228;-65
2021/03/03 10:08:46;;;;;;;30.67;23.63;;;9.40;99.90;;;;;;5024583;28;20219;-64
2021/03/03 10:11:15;;;;;;;31.47;25.07;;;9.70;99.90;;;;;;5025737;28;20741;-66
2021/03/03 10:13:42;;;;;;;31.73;25.00;;;9.80;99.90;;;;;;5022889;28;20204;-67
2021/03/03 10:16:18;;;;;;;30.17;24.77;;;9.80;99.90;;;;;;5024470;28;20223;-62
2021/03/03 10:18:58;;;;;;;32.10;24.73;;;9.90;99.90;;;;;;5021203;28;20203;-64
2021/03/03 10:21:25;;;;;;;32.70;25.67;;;9.80;99.90;;;;;;5019701;28;20208;-63
2021/03/03 10:23:52;;;;;;;32.47;25.17;;;10.00;99.90;;;;;;5022178;28;20208;-65
2021/03/03 10:26:23;;;;;;;31.77;25.37;;;10.30;99.90;;;;;;5020773;28;20232;-63
2021/03/03 10:28:53;;;;;;;32.70;25.33;;;10.40;99.90;;;;;;5021619;28;20621;-65
2021/03/03 10:31:21;;;;;;;31.47;25.00;;;10.60;99.90;;;;;;5021389;28;20205;-67
2021/03/03 10:33:48;;;;;;;31.97;25.63;;;10.50;99.90;;;;;;5022602;28;20227;-62
2021/03/03 10:36:20;;;;;;;33.00;26.40;;;10.30;99.90;;;;;;5022641;28;20239;-63
2021/03/03 10:38:48;;;;;;;33.63;26.40;;;10.10;99.90;;;;;;5019041;28;20215;-65
2021/03/03 10:41:24;;;;;;;32.67;26.10;;;10.20;99.90;;;;;;5021146;28;20209;-62
2021/03/03 10:43:51;;;;;;;32.37;26.03;;;10.50;99.90;;;;;;5021038;28;20196;-66
2021/03/03 10:46:19;;;;;;;30.80;25.70;;;10.60;99.90;;;;;;5021262;28;20282;-63
2021/03/03 10:48:47;;;;;;;30.70;25.53;;;10.90;99.90;;;;;;5018655;28;20603;-65
2021/03/03 10:51:15;;;;;;;34.43;28.30;;;11.00;99.90;;;;;;5021921;28;20196;-64
2021/03/03 10:53:50;;;;;;;35.10;27.33;;;11.30;99.90;;;;;;5019962;28;21078;-65
2021/03/03 10:56:24;;;;;;;33.43;26.40;;;11.00;99.90;;;;;;5020934;28;20265;-63
2021/03/03 10:58:51;;;;;;;32.37;26.40;;;11.40;99.90;;;;;;5018948;28;20191;-63
2021/03/03 11:01:19;;;;;;;31.23;25.83;;;11.70;99.90;;;;;;5020885;28;20200;-63
2021/03/03 11:03:54;;;;;;;30.07;25.70;;;11.70;99.90;;;;;;5020674;28;20226;-62
2021/03/03 11:06:20;;;;;;;33.33;25.43;;;11.80;99.90;;;;;;5019722;28;20302;-63
2021/03/03 11:08:47;;;;;;;29.67;25.23;;;11.50;99.90;;;;;;5022776;28;20216;-61
2021/03/03 11:11:14;;;;;;;33.87;27.10;;;11.70;99.90;;;;;;5029578;28;20211;-61
2021/03/03 11:13:42;;;;;;;32.00;25.70;;;12.00;99.90;;;;;;5023300;28;20209;-61
2021/03/03 11:16:08;;;;;;;33.90;27.27;;;12.10;99.90;;;;;;5023312;28;20212;-61
2021/03/03 11:18:35;;;;;;;33.47;26.60;;;11.90;99.90;;;;;;5021161;28;20204;-61
2021/03/03 11:21:02;;;;;;;31.50;26.53;;;12.00;99.90;;;;;;5020153;28;20199;-65
2021/03/03 11:23:29;;;;;;;30.80;25.23;;;12.20;99.90;;;;;;5021941;28;20204;-62
2021/03/03 11:25:56;;;;;;;34.23;27.07;;;12.00;99.90;;;;;;5019013;28;20224;-64
2021/03/03 11:28:23;;;;;;;34.53;27.23;;;12.00;99.90;;;;;;5021080;28;20862;-63
2021/03/03 11:30:51;;;;;;;34.33;26.47;;;12.10;99.90;;;;;;5021949;28;20207;-63
2021/03/03 11:33:17;;;;;;;29.20;25.53;;;12.30;99.90;;;;;;5019019;28;20204;-62
2021/03/03 11:35:44;;;;;;;32.93;27.10;;;12.50;99.90;;;;;;5022849;28;20211;-61
2021/03/03 11:38:11;;;;;;;33.23;27.63;;;12.40;99.90;;;;;;5017160;28;20224;-61
2021/03/03 11:40:37;;;;;;;36.90;28.43;;;12.40;99.90;;;;;;5018957;28;20292;-63
2021/03/03 11:43:04;;;;;;;35.37;28.83;;;12.30;99.90;;;;;;5020343;28;20200;-63
2021/03/03 11:45:31;;;;;;;36.57;27.97;;;12.30;99.90;;;;;;5019555;28;20232;-64
2021/03/03 11:47:58;;;;;;;35.33;28.97;;;12.10;99.90;;;;;;5019296;28;20200;-63
2021/03/03 11:50:25;;;;;;;32.03;26.93;;;12.40;99.90;;;;;;5019490;28;20763;-62
2021/03/03 11:52:51;;;;;;;32.03;26.43;;;12.70;99.90;;;;;;5017336;28;20204;-65
2021/03/03 11:55:18;;;;;;;32.70;27.07;;;12.90;99.90;;;;;;5021746;28;20665;-65
2021/03/03 11:57:45;;;;;;;36.03;27.63;;;13.10;99.90;;;;;;5019446;28;20650;-63
2021/03/03 12:00:13;;;;;;;34.60;28.83;;;13.30;99.90;;;;;;5017497;28;20208;-61
2021/03/03 12:02:40;;;;;;;34.50;29.30;;;13.40;99.90;;;;;;5020840;28;20251;-62
2021/03/03 12:05:09;;;;;;;35.60;29.17;;;13.90;99.90;;;;;;5023263;28;20232;-62
2021/03/03 12:07:35;;;;;;;34.83;28.83;;;14.20;99.90;;;;;;5017701;28;20718;-61
2021/03/03 12:10:04;;;;;;;36.17;28.50;;;14.50;99.90;;;;;;5019580;28;20623;-65
2021/03/03 12:12:30;;;;;;;33.43;28.13;;;14.80;99.90;;;;;;5021026;28;20601;-61
2021/03/03 12:14:57;;;;;;;34.53;28.23;;;15.30;99.90;;;;;;5018520;28;20680;-65
2021/03/03 12:17:23;;;;;;;32.53;27.47;;;15.70;99.90;;;;;;5022169;28;20201;-61
2021/03/03 12:19:49;;;;;;;33.27;28.30;;;15.70;99.90;;;;;;5017538;28;20208;-65
2021/03/03 12:22:17;;;;;;;34.13;29.13;;;16.10;99.90;;;;;;5017440;28;20200;-65
2021/03/03 12:24:43;;;;;;;32.90;28.97;;;16.50;99.90;;;;;;5019264;28;20594;-63
2021/03/03 12:27:10;;;;;;;33.43;29.13;;;16.50;99.90;;;;;;5022350;28;20240;-62
2021/03/03 12:29:36;;;;;;;34.77;30.07;;;16.70;99.90;;;;;;5023505;28;20203;-62
2021/03/03 12:32:03;;;;;;;32.43;28.23;;;16.80;99.90;;;;;;5021268;28;20203;-65
2021/03/03 12:34:30;;;;;;;34.80;30.07;;;16.90;99.90;;;;;;5025484;28;20247;-66
2021/03/03 12:36:56;;;;;;;36.00;30.40;;;17.10;99.90;;;;;;5021696;28;20204;-65
2021/03/03 12:39:23;;;;;;;35.73;30.20;;;17.00;99.90;;;;;;5024503;28;20205;-63
2021/03/03 12:41:50;;;;;;;35.67;31.47;;;17.10;99.90;;;;;;5021727;28;20624;-61
2021/03/03 12:44:16;;;;;;;36.63;30.27;;;17.20;99.90;;;;;;5019972;28;20200;-63
2021/03/03 12:46:43;;;;;;;36.60;30.60;;;17.20;99.90;;;;;;5020710;28;20231;-66
2021/03/03 12:49:09;;;;;;;35.33;30.23;;;17.10;99.90;;;;;;5024746;28;20219;-63
2021/03/03 12:51:36;;;;;;;36.07;31.33;;;17.40;99.90;;;;;;5021512;28;20235;-64
2021/03/03 12:54:03;;;;;;;33.83;29.43;;;17.70;99.90;;;;;;5021249;28;20242;-64
2021/03/03 12:56:31;;;;;;;34.20;29.57;;;17.60;99.90;;;;;;5021735;28;20205;-62
2021/03/03 12:58:57;;;;;;;34.27;29.83;;;17.50;99.90;;;;;;5019650;28;20201;-64
2021/03/03 13:01:23;;;;;;;33.53;29.83;;;17.30;99.90;;;;;;5022111;28;20207;-62
2021/03/03 13:03:50;;;;;;;34.70;30.17;;;17.40;99.90;;;;;;5021796;28;21194;-61
2021/03/03 13:06:16;;;;;;;35.07;30.33;;;17.60;99.90;;;;;;5020165;28;20365;-65
2021/03/03 13:08:43;;;;;;;34.37;29.37;;;17.80;99.90;;;;;;5023259;28;20591;-62
2021/03/03 13:11:09;;;;;;;34.53;30.27;;;17.90;99.90;;;;;;5019396;28;20204;-63